createdAt,value
2023-03-20T00:01:14.799Z,10.01
2023-03-20T00:03:24.701Z,10.02
2023-03-20T00:05:30.239Z,10.01
2023-03-20T00:07:34.030Z,10.02
2023-03-20T00:09:37.962Z,10.02
2023-03-20T00:11:49.537Z,10.04
2023-03-20T00:13:53.407Z,10.04
2023-03-20T00:15:57.383Z,10.06
2023-03-20T00:18:02.940Z,10.07
2023-03-20T00:20:07.217Z,10.08
2023-03-20T00:22:11.432Z,10.09
2023-03-20T00:24:16.751Z,10.11
2023-03-20T00:26:21.073Z,10.12
2023-03-20T00:28:39.204Z,10.14
2023-03-20T00:30:43.341Z,10.15
2023-03-20T00:32:48.455Z,10.15
2023-03-20T00:34:54.688Z,10.15
2023-03-20T00:37:00.252Z,10.15
2023-03-20T00:39:06.998Z,10.15
2023-03-20T00:41:25.430Z,10.16
2023-03-20T00:43:29.912Z,10.16
2023-03-20T00:45:36.967Z,10.16
2023-03-20T00:47:42.438Z,10.15
2023-03-20T00:49:48.387Z,10.15
2023-03-20T00:51:53.929Z,10.15
2023-03-20T00:53:58.005Z,10.13
2023-03-20T00:56:02.165Z,10.12
2023-03-20T00:58:06.642Z,10.10
2023-03-20T01:00:21.534Z,10.09
2023-03-20T01:02:29.256Z,10.09
2023-03-20T01:04:38.667Z,10.08
2023-03-20T01:06:42.476Z,10.08
2023-03-20T01:08:49.183Z,10.08
2023-03-20T01:10:56.514Z,10.06
2023-03-20T01:13:03.028Z,10.06
2023-03-20T01:15:18.250Z,10.04
2023-03-20T01:17:24.293Z,10.05
2023-03-20T01:19:28.891Z,10.04
2023-03-20T01:21:32.888Z,10.04
2023-03-20T01:23:36.742Z,10.03
2023-03-20T01:25:42.698Z,10.05
2023-03-20T01:27:51.313Z,10.04
2023-03-20T01:29:56.688Z,10.04
2023-03-20T01:32:00.819Z,10.06
2023-03-20T01:34:06.621Z,10.05
2023-03-20T01:36:13.415Z,10.06
2023-03-20T01:38:22.213Z,10.07
2023-03-20T01:40:36.759Z,10.08
2023-03-20T01:42:42.489Z,10.08
2023-03-20T01:44:47.589Z,10.08
2023-03-20T01:46:54.124Z,10.09
2023-03-20T01:49:08.878Z,10.10
2023-03-20T01:51:12.901Z,10.11
2023-03-20T01:53:20.714Z,10.12
2023-03-20T01:55:30.669Z,10.15
2023-03-20T01:57:37.956Z,10.16
2023-03-20T01:59:47.577Z,10.18
2023-03-20T02:01:52.185Z,10.20
2023-03-20T02:03:58.825Z,10.20
2023-03-20T02:06:27.573Z,10.20
2023-03-20T02:09:04.667Z,10.21
2023-03-20T02:11:16.666Z,10.21
2023-03-20T02:13:21.172Z,10.22
2023-03-20T02:15:29.572Z,10.22
2023-03-20T02:17:47.163Z,10.23
2023-03-20T02:20:05.727Z,10.24
2023-03-20T02:22:51.351Z,10.24
2023-03-20T02:25:34.300Z,10.25
2023-03-20T02:27:46.042Z,10.26
2023-03-20T02:30:40.614Z,10.27
2023-03-20T02:33:19.331Z,10.27
2023-03-20T02:36:04.709Z,10.31
2023-03-20T02:38:36.859Z,10.33
2023-03-20T02:40:50.036Z,10.35
2023-03-20T02:43:01.865Z,10.37
2023-03-20T02:45:15.906Z,10.39
2023-03-20T02:47:27.298Z,10.41
2023-03-20T02:49:51.701Z,10.41
2023-03-20T02:52:03.119Z,10.42
2023-03-20T02:54:16.022Z,10.42
2023-03-20T02:56:26.450Z,10.43
2023-03-20T02:58:38.875Z,10.43
2023-03-20T03:00:51.023Z,10.44
2023-03-20T03:03:04.534Z,10.46
2023-03-20T03:05:14.959Z,10.45
2023-03-20T03:07:23.032Z,10.46
2023-03-20T03:09:33.209Z,10.46
2023-03-20T03:11:43.001Z,10.46
2023-03-20T03:13:53.230Z,10.46
2023-03-20T03:16:03.565Z,10.45
2023-03-20T03:18:13.023Z,10.44
2023-03-20T03:20:24.043Z,10.45
2023-03-20T03:22:28.473Z,10.44
2023-03-20T03:24:41.397Z,10.44
2023-03-20T03:26:48.631Z,10.45
2023-03-20T03:28:55.984Z,10.44
2023-03-20T03:31:02.190Z,10.44
2023-03-20T03:33:15.564Z,10.44
2023-03-20T03:35:21.911Z,10.43
2023-03-20T03:37:40.759Z,10.43
2023-03-20T03:39:53.370Z,10.42
2023-03-20T03:42:04.881Z,10.44
2023-03-20T03:44:16.156Z,10.45
2023-03-20T03:46:26.826Z,10.44
2023-03-20T03:48:34.080Z,10.44
2023-03-20T03:50:48.059Z,10.42
2023-03-20T03:52:53.874Z,10.42
2023-03-20T03:55:04.347Z,10.40
2023-03-20T03:57:10.386Z,10.40
2023-03-20T03:59:22.273Z,10.41
2023-03-20T04:01:29.312Z,10.40
2023-03-20T04:03:36.648Z,10.41
2023-03-20T04:05:44.247Z,10.40
2023-03-20T04:07:48.666Z,10.40
2023-03-20T04:09:53.923Z,10.39
2023-03-20T04:11:59.913Z,10.39
2023-03-20T04:14:03.408Z,10.39
2023-03-20T04:16:08.534Z,10.38
2023-03-20T04:18:17.410Z,10.37
2023-03-20T04:20:22.917Z,10.36
2023-03-20T04:22:26.499Z,10.35
2023-03-20T04:24:31.117Z,10.34
2023-03-20T04:26:34.662Z,10.32
2023-03-20T04:28:39.771Z,10.31
2023-03-20T04:31:03.343Z,10.30
2023-03-20T04:33:25.748Z,10.30
2023-03-20T04:35:53.120Z,10.27
2023-03-20T04:37:56.636Z,10.27
2023-03-20T04:40:00.451Z,10.25
2023-03-20T04:42:04.577Z,10.23
2023-03-20T04:44:09.626Z,10.24
2023-03-20T04:46:13.310Z,10.22
2023-03-20T04:48:17.804Z,10.22
2023-03-20T04:50:21.844Z,10.20
2023-03-20T04:52:27.563Z,10.19
2023-03-20T04:54:31.154Z,10.19
2023-03-20T04:56:34.684Z,10.18
2023-03-20T04:58:48.600Z,10.16
2023-03-20T05:00:54.895Z,10.14
2023-03-20T05:02:58.519Z,10.12
2023-03-20T05:05:02.158Z,10.11
2023-03-20T05:07:06.066Z,10.09
2023-03-20T05:09:18.069Z,10.08
2023-03-20T05:11:22.245Z,10.06
2023-03-20T05:13:47.962Z,10.06
2023-03-20T05:16:12.988Z,10.04
2023-03-20T05:18:36.859Z,10.02
2023-03-20T05:21:13.043Z,10.01
2023-03-20T05:23:19.044Z,10.00
2023-03-20T05:26:00.562Z,9.99
2023-03-20T05:28:22.461Z,9.96
2023-03-20T05:30:36.741Z,9.96
2023-03-20T05:33:00.704Z,9.95
2023-03-20T05:35:04.882Z,9.94
2023-03-20T05:37:19.233Z,9.95
2023-03-20T05:39:42.611Z,9.94
2023-03-20T05:42:08.832Z,9.93
2023-03-20T05:44:47.699Z,9.94
2023-03-20T05:47:20.740Z,9.93
2023-03-20T05:49:34.894Z,9.92
2023-03-20T05:52:01.240Z,9.93
2023-03-20T05:54:16.253Z,9.93
2023-03-20T05:56:42.698Z,9.93
2023-03-20T05:59:02.913Z,9.93
2023-03-20T06:01:23.534Z,9.94
2023-03-20T06:03:29.735Z,9.94
2023-03-20T06:05:43.007Z,9.94
2023-03-20T06:07:46.678Z,9.93
2023-03-20T06:09:52.209Z,9.94
2023-03-20T06:11:55.595Z,9.94
2023-03-20T06:13:59.588Z,9.95
2023-03-20T06:16:11.996Z,9.95
2023-03-20T06:18:15.829Z,9.96
2023-03-20T06:20:19.664Z,9.98
2023-03-20T06:22:24.443Z,9.99
2023-03-20T06:24:27.945Z,9.99
2023-03-20T06:26:31.389Z,10.01
2023-03-20T06:28:40.176Z,10.02
2023-03-20T06:30:45.802Z,10.03
2023-03-20T06:32:53.898Z,10.04
2023-03-20T06:35:00.173Z,10.04
2023-03-20T06:37:03.731Z,10.04
2023-03-20T06:39:09.017Z,10.06
2023-03-20T06:41:18.896Z,10.06
2023-03-20T06:43:31.945Z,10.06
2023-03-20T06:45:36.792Z,10.05
2023-03-20T06:47:47.451Z,10.04
2023-03-20T06:49:51.173Z,10.04
2023-03-20T06:51:54.763Z,10.03
2023-03-20T06:54:01.268Z,10.03
2023-03-20T06:56:06.968Z,10.02
2023-03-20T06:58:10.785Z,10.02
2023-03-20T07:00:16.051Z,9.99
2023-03-20T07:02:20.403Z,9.96
2023-03-20T07:04:24.237Z,9.94
2023-03-20T07:06:31.145Z,9.93
2023-03-20T07:08:35.508Z,9.94
2023-03-20T07:10:39.243Z,9.96
2023-03-20T07:12:44.783Z,9.98
2023-03-20T07:14:48.756Z,10.02
2023-03-20T07:16:56.574Z,10.05
2023-03-20T07:19:00.238Z,10.11
2023-03-20T07:21:08.067Z,10.16
2023-03-20T07:23:13.436Z,10.20
2023-03-20T07:25:20.571Z,10.23
2023-03-20T07:27:30.670Z,10.28
2023-03-20T07:29:37.250Z,10.33
2023-03-20T07:31:47.637Z,10.37
2023-03-20T07:33:59.830Z,10.42
2023-03-20T07:36:03.764Z,10.46
2023-03-20T07:38:08.283Z,10.49
2023-03-20T07:40:22.166Z,10.54
2023-03-20T07:42:33.340Z,10.57
2023-03-20T07:44:49.565Z,10.62
2023-03-20T07:46:54.186Z,10.65
2023-03-20T07:49:00.629Z,10.68
2023-03-20T07:51:05.326Z,10.72
2023-03-20T07:53:09.968Z,10.77
2023-03-20T07:55:16.181Z,10.80
2023-03-20T07:57:22.607Z,10.84
2023-03-20T07:59:27.020Z,10.89
2023-03-20T08:01:34.632Z,10.94
2023-03-20T08:03:40.101Z,10.98
2023-03-20T08:05:47.337Z,11.02
2023-03-20T08:07:52.712Z,11.06
2023-03-20T08:09:57.275Z,11.09
2023-03-20T08:12:01.553Z,11.09
2023-03-20T08:14:06.095Z,11.09
2023-03-20T08:16:11.326Z,11.11
2023-03-20T08:18:16.905Z,11.15
2023-03-20T08:20:22.141Z,11.20
2023-03-20T08:22:26.661Z,11.24
2023-03-20T08:24:31.379Z,11.27
2023-03-20T08:26:36.073Z,11.31
2023-03-20T08:28:47.546Z,11.37
2023-03-20T08:30:52.361Z,11.41
2023-03-20T08:32:58.645Z,11.44
2023-03-20T08:35:04.780Z,11.48
2023-03-20T08:37:10.442Z,11.52
2023-03-20T08:39:14.506Z,11.58
2023-03-20T08:41:19.032Z,11.64
2023-03-20T08:43:23.278Z,11.66
2023-03-20T08:45:27.268Z,11.68
2023-03-20T08:47:31.364Z,11.69
2023-03-20T08:49:35.707Z,11.70
2023-03-20T08:51:41.365Z,11.71
2023-03-20T08:53:45.236Z,11.75
2023-03-20T08:55:50.861Z,11.85
2023-03-20T08:57:57.666Z,11.93
2023-03-20T09:00:02.494Z,12.04
2023-03-20T09:02:07.312Z,12.14
2023-03-20T09:04:12.061Z,12.25
2023-03-20T09:06:16.518Z,12.35
2023-03-20T09:08:22.798Z,12.42
2023-03-20T09:10:27.361Z,12.41
2023-03-20T09:12:32.234Z,12.42
2023-03-20T09:14:36.586Z,12.44
2023-03-20T09:16:40.388Z,12.48
2023-03-20T09:18:44.642Z,12.56
2023-03-20T09:20:49.152Z,12.60
2023-03-20T09:22:53.105Z,12.66
2023-03-20T09:24:58.267Z,12.62
2023-03-20T09:27:03.597Z,12.59
2023-03-20T09:29:09.035Z,12.59
2023-03-20T09:31:13.646Z,12.56
2023-03-20T09:33:18.752Z,12.51
2023-03-20T09:35:23.079Z,12.51
2023-03-20T09:37:27.203Z,12.50
2023-03-20T09:39:31.404Z,12.38
2023-03-20T09:41:49.257Z,12.31
2023-03-20T09:44:11.711Z,12.23
2023-03-20T09:46:39.691Z,12.26
2023-03-20T09:48:54.298Z,12.28
2023-03-20T09:51:07.747Z,12.27
2023-03-20T09:53:14.948Z,12.32
2023-03-20T09:55:23.891Z,12.34
2023-03-20T09:57:31.485Z,12.34
2023-03-20T09:59:37.807Z,12.36
2023-03-20T10:01:49.242Z,12.43
2023-03-20T10:03:57.243Z,12.51
2023-03-20T10:06:03.733Z,12.60
2023-03-20T10:08:15.028Z,12.67
2023-03-20T10:10:21.234Z,12.75
2023-03-20T10:12:46.000Z,12.84
2023-03-20T10:14:59.743Z,12.95
2023-03-20T10:17:16.981Z,13.00
2023-03-20T10:19:26.460Z,13.07
2023-03-20T10:21:38.776Z,13.13
2023-03-20T10:23:46.840Z,13.18
2023-03-20T10:25:53.349Z,13.23
2023-03-20T10:28:01.145Z,13.27
2023-03-20T10:30:24.167Z,13.35
2023-03-20T10:32:36.549Z,13.49
2023-03-20T10:34:58.527Z,13.67
2023-03-20T10:37:16.952Z,13.82
2023-03-20T10:39:30.775Z,13.95
2023-03-20T10:41:39.127Z,14.05
2023-03-20T10:43:46.306Z,14.11
2023-03-20T10:45:55.944Z,14.15
2023-03-20T10:48:04.429Z,14.17
2023-03-20T10:50:12.975Z,14.17
2023-03-20T10:52:21.226Z,14.16
2023-03-20T10:54:28.871Z,14.13
2023-03-20T10:56:39.489Z,14.08
2023-03-20T10:58:48.825Z,14.00
2023-03-20T11:00:55.629Z,13.89
2023-03-20T11:03:00.389Z,13.81
2023-03-20T11:05:10.310Z,13.78
2023-03-20T11:07:23.741Z,13.72
2023-03-20T11:09:30.163Z,13.67
2023-03-20T11:11:37.209Z,13.65
2023-03-20T11:13:44.068Z,13.63
2023-03-20T11:15:49.305Z,13.61
2023-03-20T11:17:55.364Z,13.62
2023-03-20T11:20:06.045Z,13.60
2023-03-20T11:22:21.463Z,13.62
2023-03-20T11:24:34.678Z,13.65
2023-03-20T11:26:40.789Z,13.66
2023-03-20T11:28:49.866Z,13.67
2023-03-20T11:31:06.995Z,13.66
2023-03-20T11:33:10.339Z,13.58
2023-03-20T11:35:23.145Z,13.49
2023-03-20T11:37:30.148Z,13.43
2023-03-20T11:39:34.355Z,13.32
2023-03-20T11:41:44.186Z,13.25
2023-03-20T11:43:47.982Z,13.21
2023-03-20T11:45:56.474Z,13.20
2023-03-20T11:48:04.042Z,13.16
2023-03-20T11:50:26.709Z,13.14
2023-03-20T11:52:35.277Z,13.11
2023-03-20T11:54:48.809Z,13.13
2023-03-20T11:56:57.963Z,13.17
2023-03-20T11:59:06.113Z,13.21
2023-03-20T12:01:14.324Z,13.25
2023-03-20T12:03:43.763Z,13.30
2023-03-20T12:05:49.675Z,13.31
2023-03-20T12:07:58.287Z,13.34
2023-03-20T12:10:07.645Z,13.39
2023-03-20T12:12:21.169Z,13.41
2023-03-20T12:14:32.681Z,13.44
2023-03-20T12:16:39.476Z,13.49
2023-03-20T12:18:49.807Z,13.57
2023-03-20T12:21:05.851Z,13.63
2023-03-20T12:23:14.956Z,13.65
2023-03-20T12:25:24.402Z,13.67
2023-03-20T12:27:34.719Z,13.70
2023-03-20T12:29:44.969Z,13.75
2023-03-20T12:31:52.456Z,13.76
2023-03-20T12:34:02.901Z,13.76
2023-03-20T12:36:14.181Z,13.77
2023-03-20T12:38:26.330Z,13.78
2023-03-20T12:40:40.204Z,13.79
2023-03-20T12:42:58.917Z,13.82
2023-03-20T12:45:09.832Z,13.79
2023-03-20T12:47:24.472Z,13.81
2023-03-20T12:49:52.285Z,13.86
2023-03-20T12:52:04.554Z,14.02
2023-03-20T12:54:22.614Z,14.29
2023-03-20T12:56:37.510Z,14.42
2023-03-20T12:58:46.091Z,14.48
2023-03-20T13:01:01.030Z,14.50
2023-03-20T13:03:23.100Z,14.49
2023-03-20T13:05:38.713Z,14.49
2023-03-20T13:08:00.128Z,14.47
2023-03-20T13:10:24.060Z,14.50
2023-03-20T13:12:41.899Z,14.56
2023-03-20T13:14:54.989Z,14.65
2023-03-20T13:17:05.757Z,14.71
2023-03-20T13:19:17.458Z,14.77
2023-03-20T13:21:29.405Z,14.83
2023-03-20T13:23:42.857Z,14.91
2023-03-20T13:26:05.204Z,14.91
2023-03-20T13:28:15.995Z,14.89
2023-03-20T13:30:28.390Z,14.86
2023-03-20T13:32:46.625Z,14.86
2023-03-20T13:35:02.580Z,14.88
2023-03-20T13:37:23.897Z,14.88
2023-03-20T13:39:34.496Z,14.88
2023-03-20T13:41:38.713Z,14.90
2023-03-20T13:43:48.913Z,14.91
2023-03-20T13:46:00.804Z,14.89
2023-03-20T13:48:24.436Z,14.86
2023-03-20T13:50:39.341Z,14.83
2023-03-20T13:52:51.538Z,14.79
2023-03-20T13:55:12.106Z,14.76
2023-03-20T13:57:30.242Z,14.74
2023-03-20T14:00:00.921Z,14.76
2023-03-20T14:02:22.895Z,14.75
2023-03-20T14:04:29.173Z,14.70
2023-03-20T14:06:52.796Z,14.67
2023-03-20T14:08:58.232Z,14.62
2023-03-20T14:11:15.178Z,14.63
2023-03-20T14:13:22.022Z,14.63
2023-03-20T14:15:29.441Z,14.66
2023-03-20T14:17:34.387Z,14.69
2023-03-20T14:19:39.228Z,14.71
2023-03-20T14:21:48.292Z,14.78
2023-03-20T14:23:58.949Z,14.79
2023-03-20T14:26:10.586Z,14.80
2023-03-20T14:28:29.057Z,14.79
2023-03-20T14:30:42.562Z,14.75
2023-03-20T14:33:00.593Z,14.70
2023-03-20T14:35:25.091Z,14.62
2023-03-20T14:37:33.482Z,14.54
2023-03-20T14:39:48.504Z,14.49
2023-03-20T14:42:35.752Z,14.44
2023-03-20T14:45:00.576Z,14.38
2023-03-20T14:47:13.477Z,14.39
2023-03-20T14:49:27.978Z,14.39
2023-03-20T14:51:43.043Z,14.39
2023-03-20T14:53:57.376Z,14.41
2023-03-20T14:56:10.245Z,14.44
2023-03-20T14:58:43.769Z,14.45
2023-03-20T15:00:49.150Z,14.45
2023-03-20T15:02:55.445Z,14.44
2023-03-20T15:04:59.566Z,14.45
2023-03-20T15:07:06.196Z,14.45
2023-03-20T15:09:13.072Z,14.44
2023-03-20T15:11:18.092Z,14.43
2023-03-20T15:13:22.778Z,14.41
2023-03-20T15:15:31.685Z,14.38
2023-03-20T15:17:39.552Z,14.33
2023-03-20T15:19:46.855Z,14.31
2023-03-20T15:21:51.047Z,14.28
2023-03-20T15:23:54.817Z,14.24
2023-03-20T15:26:03.350Z,14.22
2023-03-20T15:28:07.672Z,14.22
2023-03-20T15:30:15.184Z,14.24
2023-03-20T15:32:21.318Z,14.27
2023-03-20T15:34:29.063Z,14.29
2023-03-20T15:36:37.273Z,14.31
2023-03-20T15:38:41.131Z,14.29
2023-03-20T15:40:51.184Z,14.27
2023-03-20T15:42:57.020Z,14.23
2023-03-20T15:45:01.750Z,14.16
2023-03-20T15:47:13.021Z,14.11
2023-03-20T15:49:20.720Z,14.07
2023-03-20T15:51:28.660Z,14.07
2023-03-20T15:53:35.551Z,14.05
2023-03-20T15:55:39.876Z,14.05
2023-03-20T15:57:48.000Z,14.06
2023-03-20T15:59:52.834Z,14.04
2023-03-20T16:01:58.110Z,14.00
2023-03-20T16:04:14.892Z,13.99
2023-03-20T16:06:24.152Z,13.98
2023-03-20T16:08:31.228Z,13.95
2023-03-20T16:10:36.876Z,13.88
2023-03-20T16:12:41.262Z,13.80
2023-03-20T16:14:48.011Z,13.73
2023-03-20T16:16:54.562Z,13.67
2023-03-20T16:18:59.393Z,13.61
2023-03-20T16:21:04.940Z,13.56
2023-03-20T16:23:11.399Z,13.52
2023-03-20T16:25:18.795Z,13.48
2023-03-20T16:27:27.853Z,13.43
2023-03-20T16:29:31.760Z,13.43
2023-03-20T16:31:37.239Z,13.44
2023-03-20T16:33:42.577Z,13.42
2023-03-20T16:35:49.243Z,13.39
2023-03-20T16:37:55.942Z,13.35
2023-03-20T16:40:17.413Z,13.34
2023-03-20T16:42:25.462Z,13.35
2023-03-20T16:44:34.305Z,13.34
2023-03-20T16:46:38.215Z,13.30
2023-03-20T16:48:43.864Z,13.28
2023-03-20T16:50:53.400Z,13.20
2023-03-20T16:53:00.235Z,13.19
2023-03-20T16:55:03.968Z,13.17
2023-03-20T16:57:17.387Z,13.15
2023-03-20T16:59:21.986Z,13.15
2023-03-20T17:01:28.952Z,13.14
2023-03-20T17:03:38.332Z,13.10
2023-03-20T17:05:51.386Z,13.09
2023-03-20T17:08:06.944Z,13.07
2023-03-20T17:10:21.854Z,13.06
2023-03-20T17:12:29.407Z,13.04
2023-03-20T17:14:34.177Z,13.03
2023-03-20T17:16:40.532Z,13.01
2023-03-20T17:18:46.571Z,13.00
2023-03-20T17:20:50.221Z,12.99
2023-03-20T17:22:54.507Z,12.98
2023-03-20T17:24:58.725Z,12.98
2023-03-20T17:27:02.430Z,12.97
2023-03-20T17:29:08.087Z,12.96
2023-03-20T17:31:16.145Z,12.93
2023-03-20T17:33:22.407Z,12.92
2023-03-20T17:35:26.104Z,12.90
2023-03-20T17:37:31.203Z,12.89
2023-03-20T17:39:35.380Z,12.88
2023-03-20T17:41:39.349Z,12.88
2023-03-20T17:43:43.372Z,12.83
2023-03-20T17:45:49.396Z,12.81
2023-03-20T17:47:54.970Z,12.78
2023-03-20T17:49:58.768Z,12.76
2023-03-20T17:52:05.142Z,12.73
2023-03-20T17:54:08.735Z,12.69
2023-03-20T17:56:14.317Z,12.68
2023-03-20T17:58:21.247Z,12.66
2023-03-20T18:00:27.203Z,12.66
2023-03-20T18:02:32.754Z,12.63
2023-03-20T18:04:37.463Z,12.61
2023-03-20T18:06:41.745Z,12.61
2023-03-20T18:08:47.266Z,12.59
2023-03-20T18:10:52.284Z,12.56
2023-03-20T18:12:57.017Z,12.53
2023-03-20T18:15:01.055Z,12.51
2023-03-20T18:17:06.293Z,12.51
2023-03-20T18:19:24.477Z,12.48
2023-03-20T18:21:28.625Z,12.49
2023-03-20T18:23:32.406Z,12.47
2023-03-20T18:25:36.407Z,12.46
2023-03-20T18:27:40.382Z,12.44
2023-03-20T18:29:45.024Z,12.42
2023-03-20T18:31:50.544Z,12.41
2023-03-20T18:33:55.709Z,12.38
2023-03-20T18:36:02.633Z,12.36
2023-03-20T18:38:07.900Z,12.35
2023-03-20T18:40:20.296Z,12.36
2023-03-20T18:42:26.931Z,12.37
2023-03-20T18:44:32.210Z,12.39
2023-03-20T18:46:36.686Z,12.39
2023-03-20T18:48:41.455Z,12.39
2023-03-20T18:50:51.232Z,12.40
2023-03-20T18:52:58.508Z,12.38
2023-03-20T18:55:07.665Z,12.35
2023-03-20T18:57:15.541Z,12.35
2023-03-20T18:59:19.744Z,12.34
2023-03-20T19:01:24.894Z,12.33
2023-03-20T19:03:29.717Z,12.29
2023-03-20T19:05:33.714Z,12.21
2023-03-20T19:07:37.508Z,12.18
2023-03-20T19:09:43.976Z,12.12
2023-03-20T19:11:49.744Z,12.04
2023-03-20T19:13:55.587Z,11.96
2023-03-20T19:15:59.922Z,11.91
2023-03-20T19:18:05.529Z,11.89
2023-03-20T19:20:30.237Z,11.84
2023-03-20T19:22:34.824Z,11.77
2023-03-20T19:24:40.591Z,11.72
2023-03-20T19:26:46.608Z,11.65
2023-03-20T19:28:51.015Z,11.57
2023-03-20T19:30:56.507Z,11.48
2023-03-20T19:33:02.448Z,11.43
2023-03-20T19:37:33.041Z,11.37
2023-03-20T19:39:37.434Z,11.35
2023-03-20T19:41:42.838Z,11.33
2023-03-20T19:43:52.865Z,11.35
2023-03-20T19:45:59.454Z,11.39
2023-03-20T19:48:05.543Z,11.43
2023-03-20T19:50:27.862Z,11.46
2023-03-20T19:52:35.503Z,11.48
2023-03-20T19:54:50.078Z,11.49
2023-03-20T19:57:04.652Z,11.52
2023-03-20T19:59:10.529Z,11.56
2023-03-20T20:01:19.945Z,11.58
2023-03-20T20:03:27.441Z,11.58
2023-03-20T20:05:33.405Z,11.59
2023-03-20T20:10:03.930Z,11.64
2023-03-20T20:12:08.873Z,11.66
2023-03-20T20:14:15.298Z,11.68
2023-03-20T20:16:19.708Z,11.69
2023-03-20T20:18:26.520Z,11.69
2023-03-20T20:20:34.460Z,11.69
2023-03-20T20:22:39.625Z,11.71
2023-03-20T20:24:43.988Z,11.71
2023-03-20T20:26:55.302Z,11.71
2023-03-20T20:29:04.268Z,11.71
2023-03-20T20:31:09.693Z,11.70
2023-03-20T20:33:14.410Z,11.67
2023-03-20T20:40:09.898Z,11.62
2023-03-20T20:42:14.727Z,11.61
2023-03-20T20:44:18.713Z,11.61
2023-03-20T20:46:24.795Z,11.62
2023-03-20T20:48:29.392Z,11.62
2023-03-20T20:50:36.171Z,11.64
2023-03-20T20:52:43.130Z,11.64
2023-03-20T20:54:48.124Z,11.64
2023-03-20T20:56:52.961Z,11.64
2023-03-20T20:58:56.752Z,11.65
2023-03-20T21:01:02.780Z,11.64
2023-03-20T21:03:08.870Z,11.64
2023-03-20T21:05:15.139Z,11.61
2023-03-20T21:07:19.341Z,11.63
2023-03-20T21:09:24.527Z,11.63
2023-03-20T21:11:29.302Z,11.62
2023-03-20T21:13:34.714Z,11.63
2023-03-20T21:15:39.722Z,11.62
2023-03-20T21:17:57.860Z,11.61
2023-03-20T21:20:05.702Z,11.60
2023-03-20T21:22:11.555Z,11.59
2023-03-20T21:24:31.735Z,11.59
2023-03-20T21:26:36.365Z,11.57
2023-03-20T21:28:40.346Z,11.57
2023-03-20T21:31:04.229Z,11.58
2023-03-20T21:33:07.874Z,11.56
2023-03-20T21:35:14.157Z,11.55
2023-03-20T21:39:42.795Z,11.52
2023-03-20T21:41:47.351Z,11.49
2023-03-20T21:43:51.563Z,11.48
2023-03-20T21:48:56.524Z,11.44
2023-03-20T21:56:27.755Z,11.41
2023-03-20T22:02:48.913Z,11.40
2023-03-20T22:08:09.567Z,11.38
2023-03-20T22:10:21.671Z,11.36
2023-03-20T22:12:56.280Z,11.37
2023-03-20T22:15:20.064Z,11.35
2023-03-20T22:17:43.540Z,11.35
2023-03-20T22:22:50.492Z,11.35
2023-03-20T22:24:52.525Z,11.36
2023-03-20T22:32:07.848Z,11.31
2023-03-20T22:34:32.222Z,11.31
2023-03-20T22:41:59.268Z,11.24
2023-03-20T22:46:03.649Z,11.21
2023-03-20T22:48:15.580Z,11.20
2023-03-20T22:50:19.376Z,11.18
2023-03-20T22:52:34.719Z,11.18
2023-03-20T22:54:45.542Z,11.18
2023-03-20T22:56:50.600Z,11.18
2023-03-20T22:58:54.505Z,11.17
2023-03-20T23:00:58.498Z,11.16
2023-03-20T23:03:33.460Z,11.13
2023-03-20T23:05:26.334Z,11.12
2023-03-20T23:07:30.295Z,11.10
2023-03-20T23:09:34.245Z,11.07
2023-03-20T23:11:40.987Z,11.06
2023-03-20T23:13:46.423Z,11.04
2023-03-20T23:15:50.905Z,11.02
2023-03-20T23:17:54.768Z,10.99
2023-03-20T23:20:10.380Z,10.98
2023-03-20T23:22:15.263Z,10.96
2023-03-20T23:24:18.782Z,10.93
2023-03-20T23:26:23.014Z,10.92
2023-03-20T23:28:26.555Z,10.91
2023-03-20T23:30:43.409Z,10.89
2023-03-20T23:32:48.923Z,10.90
2023-03-20T23:34:53.691Z,10.88
2023-03-20T23:36:57.604Z,10.88
2023-03-20T23:39:01.546Z,10.84
2023-03-20T23:41:06.209Z,10.82
2023-03-20T23:43:10.058Z,10.79
2023-03-20T23:45:20.565Z,10.77
2023-03-20T23:47:30.067Z,10.77
2023-03-20T23:49:39.967Z,10.73
2023-03-20T23:51:44.608Z,10.70
2023-03-20T23:53:48.800Z,10.69
2023-03-20T23:55:55.974Z,10.66
2023-03-20T23:57:59.754Z,10.64
